sensor_id;sensor_type;location;lat;lon;timestamp;pressure;altitude;pressure_sealevel;temperature;humidity
48204;BME280;33994;50.998;5.864;2023-11-21T00:00:27;100593.53;;;7.06;100.00
48204;BME280;33994;50.998;5.864;2023-11-21T00:03:30;100599.59;;;7.05;100.00
48204;BME280;33994;50.998;5.864;2023-11-21T00:06:34;100592.66;;;7.04;100.00
48204;BME280;33994;50.998;5.864;2023-11-21T00:09:37;100596.97;;;7.07;100.00
48204;BME280;33994;50.998;5.864;2023-11-21T00:12:42;100596.13;;;7.10;100.00
48204;BME280;33994;50.998;5.864;2023-11-21T00:15:45;100598.72;;;7.10;100.00
48204;BME280;33994;50.998;5.864;2023-11-21T00:18:48;100597.84;;;7.11;100.00
48204;BME280;33994;50.998;5.864;2023-11-21T00:21:51;100599.53;;;7.15;100.00
48204;BME280;33994;50.998;5.864;2023-11-21T00:24:54;100603.03;;;7.17;100.00
48204;BME280;33994;50.998;5.864;2023-11-21T00:27:59;100598.66;;;7.19;100.00
48204;BME280;33994;50.998;5.864;2023-11-21T00:31:02;100604.72;;;7.19;100.00
48204;BME280;33994;50.998;5.864;2023-11-21T00:34:06;100603.84;;;7.20;100.00
48204;BME280;33994;50.998;5.864;2023-11-21T00:37:09;100617.75;;;7.18;100.00
48204;BME280;33994;50.998;5.864;2023-11-21T00:40:12;100616.00;;;7.20;100.00
48204;BME280;33994;50.998;5.864;2023-11-21T00:43:17;100618.56;;;7.23;100.00
48204;BME280;33994;50.998;5.864;2023-11-21T00:46:20;100615.09;;;7.24;100.00
48204;BME280;33994;50.998;5.864;2023-11-21T00:49:23;100622.91;;;7.24;100.00
48204;BME280;33994;50.998;5.864;2023-11-21T00:52:26;100626.41;;;7.24;100.00
48204;BME280;33994;50.998;5.864;2023-11-21T00:55:29;100625.50;;;7.24;100.00
48204;BME280;33994;50.998;5.864;2023-11-21T00:58:34;100629.00;;;7.24;100.00
48204;BME280;33994;50.998;5.864;2023-11-21T01:01:37;100630.69;;;7.27;100.00
48204;BME280;33994;50.998;5.864;2023-11-21T01:04:40;100628.97;;;7.26;100.00
48204;BME280;33994;50.998;5.864;2023-11-21T01:07:43;100628.09;;;7.27;100.00
48204;BME280;33994;50.998;5.864;2023-11-21T01:10:47;100631.56;;;7.29;100.00
48204;BME280;33994;50.998;5.864;2023-11-21T01:13:51;100632.44;;;7.28;100.00
48204;BME280;33994;50.998;5.864;2023-11-21T01:16:54;100640.25;;;7.26;100.00
48204;BME280;33994;50.998;5.864;2023-11-21T01:19:57;100638.50;;;7.27;100.00
48204;BME280;33994;50.998;5.864;2023-11-21T01:23:01;100635.91;;;7.27;100.00
48204;BME280;33994;50.998;5.864;2023-11-21T01:26:04;100641.09;;;7.30;100.00
48204;BME280;33994;50.998;5.864;2023-11-21T01:29:09;100641.13;;;7.28;100.00
48204;BME280;33994;50.998;5.864;2023-11-21T01:32:12;100653.22;;;7.31;100.00
48204;BME280;33994;50.998;5.864;2023-11-21T01:35:15;100641.97;;;7.30;100.00
48204;BME280;33994;50.998;5.864;2023-11-21T01:38:18;100648.03;;;7.31;100.00
48204;BME280;33994;50.998;5.864;2023-11-21T01:41:21;100657.59;;;7.32;100.00
48204;BME280;33994;50.998;5.864;2023-11-21T01:44:26;100656.69;;;7.33;100.00
48204;BME280;33994;50.998;5.864;2023-11-21T01:47:29;100658.44;;;7.31;100.00
48204;BME280;33994;50.998;5.864;2023-11-21T01:50:33;100657.59;;;7.32;100.00
48204;BME280;33994;50.998;5.864;2023-11-21T01:53:36;100651.50;;;7.33;100.00
48204;BME280;33994;50.998;5.864;2023-11-21T01:56:39;100652.38;;;7.32;100.00
48204;BME280;33994;50.998;5.864;2023-11-21T01:59:44;100654.97;;;7.32;100.00
48204;BME280;33994;50.998;5.864;2023-11-21T02:02:48;100656.72;;;7.30;100.00
48204;BME280;33994;50.998;5.864;2023-11-21T02:05:51;100649.75;;;7.27;100.00
48204;BME280;33994;50.998;5.864;2023-11-21T02:08:54;100653.25;;;7.28;100.00
48204;BME280;33994;50.998;5.864;2023-11-21T02:11:57;100651.50;;;7.30;100.00
48204;BME280;33994;50.998;5.864;2023-11-21T02:15:02;100655.84;;;7.33;100.00
48204;BME280;33994;50.998;5.864;2023-11-21T02:18:06;100658.44;;;7.33;100.00
48204;BME280;33994;50.998;5.864;2023-11-21T02:21:09;100653.22;;;7.34;100.00
48204;BME280;33994;50.998;5.864;2023-11-21T02:24:13;100666.25;;;7.36;100.00
48204;BME280;33994;50.998;5.864;2023-11-21T02:27:17;100672.31;;;7.33;100.00
48204;BME280;33994;50.998;5.864;2023-11-21T02:30:20;100676.66;;;7.33;100.00
48204;BME280;33994;50.998;5.864;2023-11-21T02:33:23;100674.03;;;7.31;100.00
48204;BME280;33994;50.998;5.864;2023-11-21T02:36:26;100665.34;;;7.35;100.00
48204;BME280;33994;50.998;5.864;2023-11-21T02:39:31;100663.63;;;7.34;100.00
48204;BME280;33994;50.998;5.864;2023-11-21T02:42:34;100671.44;;;7.36;100.00
48204;BME280;33994;50.998;5.864;2023-11-21T02:45:37;100672.31;;;7.36;100.00
48204;BME280;33994;50.998;5.864;2023-11-21T02:48:40;100674.03;;;7.36;100.00
48204;BME280;33994;50.998;5.864;2023-11-21T02:51:44;100684.47;;;7.37;100.00
48204;BME280;33994;50.998;5.864;2023-11-21T02:54:48;100674.91;;;7.38;100.00
48204;BME280;33994;50.998;5.864;2023-11-21T02:57:51;100677.50;;;7.36;100.00
48204;BME280;33994;50.998;5.864;2023-11-21T03:00:54;100683.56;;;7.35;100.00
48204;BME280;33994;50.998;5.864;2023-11-21T03:03:58;100680.97;;;7.35;100.00
48204;BME280;33994;50.998;5.864;2023-11-21T03:07:01;100685.28;;;7.35;100.00
48204;BME280;33994;50.998;5.864;2023-11-21T03:10:07;100687.06;;;7.37;100.00
48204;BME280;33994;50.998;5.864;2023-11-21T03:13:10;100697.47;;;7.37;100.00
48204;BME280;33994;50.998;5.864;2023-11-21T03:16:15;100705.25;;;7.39;100.00
48204;BME280;33994;50.998;5.864;2023-11-21T03:19:18;100703.53;;;7.39;100.00
48204;BME280;33994;50.998;5.864;2023-11-21T03:22:21;100708.72;;;7.36;100.00
48204;BME280;33994;50.998;5.864;2023-11-21T03:25:25;100709.59;;;7.34;100.00
48204;BME280;33994;50.998;5.864;2023-11-21T03:28:28;100708.72;;;7.36;100.00
48204;BME280;33994;50.998;5.864;2023-11-21T03:31:32;100712.22;;;7.38;100.00
48204;BME280;33994;50.998;5.864;2023-11-21T03:34:35;100716.53;;;7.39;100.00
48204;BME280;33994;50.998;5.864;2023-11-21T03:37:38;100726.94;;;7.41;100.00
48204;BME280;33994;50.998;5.864;2023-11-21T03:40:42;100718.28;;;7.40;100.00
48204;BME280;33994;50.998;5.864;2023-11-21T03:43:45;100726.94;;;7.44;100.00
48204;BME280;33994;50.998;5.864;2023-11-21T03:46:48;100720.84;;;7.46;100.00
48204;BME280;33994;50.998;5.864;2023-11-21T03:49:51;100731.25;;;7.46;100.00
48204;BME280;33994;50.998;5.864;2023-11-21T03:52:55;100726.91;;;7.48;100.00
48204;BME280;33994;50.998;5.864;2023-11-21T03:56:02;100730.38;;;7.50;100.00
48204;BME280;33994;50.998;5.864;2023-11-21T03:59:05;100739.06;;;7.51;100.00
48204;BME280;33994;50.998;5.864;2023-11-21T04:02:08;100728.66;;;7.49;100.00
48204;BME280;33994;50.998;5.864;2023-11-21T04:05:12;100735.59;;;7.49;100.00
48204;BME280;33994;50.998;5.864;2023-11-21T04:08:15;100741.66;;;7.49;100.00
48204;BME280;33994;50.998;5.864;2023-11-21T04:11:20;100733.00;;;7.47;100.00
48204;BME280;33994;50.998;5.864;2023-11-21T04:14:24;100745.13;;;7.48;100.00
48204;BME280;33994;50.998;5.864;2023-11-21T04:17:27;100752.06;;;7.49;100.00
48204;BME280;33994;50.998;5.864;2023-11-21T04:20:30;100754.66;;;7.49;100.00
48204;BME280;33994;50.998;5.864;2023-11-21T04:23:34;100749.47;;;7.51;100.00
48204;BME280;33994;50.998;5.864;2023-11-21T04:26:39;100749.47;;;7.52;100.00
48204;BME280;33994;50.998;5.864;2023-11-21T04:29:42;100757.28;;;7.52;100.00
48204;BME280;33994;50.998;5.864;2023-11-21T04:32:46;100753.81;;;7.55;100.00
48204;BME280;33994;50.998;5.864;2023-11-21T04:35:49;100752.91;;;7.54;100.00
48204;BME280;33994;50.998;5.864;2023-11-21T04:38:52;100756.41;;;7.55;100.00
48204;BME280;33994;50.998;5.864;2023-11-21T04:41:56;100758.13;;;7.53;100.00
48204;BME280;33994;50.998;5.864;2023-11-21T04:44:59;100749.47;;;7.52;100.00
48204;BME280;33994;50.998;5.864;2023-11-21T04:48:03;100753.81;;;7.52;100.00
48204;BME280;33994;50.998;5.864;2023-11-21T04:51:06;100760.75;;;7.51;100.00
48204;BME280;33994;50.998;5.864;2023-11-21T04:54:09;100762.50;;;7.51;100.00
48204;BME280;33994;50.998;5.864;2023-11-21T04:57:14;100769.41;;;7.53;100.00
48204;BME280;33994;50.998;5.864;2023-11-21T05:00:17;100776.34;;;7.53;100.00
48204;BME280;33994;50.998;5.864;2023-11-21T05:03:20;100778.94;;;7.54;100.00
48204;BME280;33994;50.998;5.864;2023-11-21T05:06:24;100779.81;;;7.57;100.00
48204;BME280;33994;50.998;5.864;2023-11-21T05:09:27;100783.28;;;7.59;100.00
48204;BME280;33994;50.998;5.864;2023-11-21T05:12:32;100772.88;;;7.59;100.00
48204;BME280;33994;50.998;5.864;2023-11-21T05:15:35;100784.16;;;7.59;100.00
48204;BME280;33994;50.998;5.864;2023-11-21T05:18:37;100795.41;;;7.60;100.00
48204;BME280;33994;50.998;5.864;2023-11-21T05:21:41;100797.16;;;7.61;100.00
48204;BME280;33994;50.998;5.864;2023-11-21T05:24:44;100802.34;;;7.62;100.00
48204;BME280;33994;50.998;5.864;2023-11-21T05:27:49;100798.88;;;7.66;100.00
48204;BME280;33994;50.998;5.864;2023-11-21T05:30:52;100806.66;;;7.69;100.00
48204;BME280;33994;50.998;5.864;2023-11-21T05:33:56;100813.59;;;7.72;100.00
48204;BME280;33994;50.998;5.864;2023-11-21T05:36:59;100817.91;;;7.73;100.00
48204;BME280;33994;50.998;5.864;2023-11-21T05:40:02;100821.44;;;7.70;100.00
48204;BME280;33994;50.998;5.864;2023-11-21T05:43:07;100826.63;;;7.69;100.00
48204;BME280;33994;50.998;5.864;2023-11-21T05:46:10;100827.47;;;7.72;100.00
48204;BME280;33994;50.998;5.864;2023-11-21T05:49:13;100828.34;;;7.76;100.00
48204;BME280;33994;50.998;5.864;2023-11-21T05:52:16;100830.06;;;7.77;100.00
48204;BME280;33994;50.998;5.864;2023-11-21T05:55:22;100842.22;;;7.78;100.00
48204;BME280;33994;50.998;5.864;2023-11-21T05:58:27;100833.53;;;7.73;100.00
48204;BME280;33994;50.998;5.864;2023-11-21T06:01:30;100836.16;;;7.70;100.00
48204;BME280;33994;50.998;5.864;2023-11-21T06:04:33;100848.31;;;7.68;100.00
48204;BME280;33994;50.998;5.864;2023-11-21T06:07:37;100854.41;;;7.67;100.00
48204;BME280;33994;50.998;5.864;2023-11-21T06:10:40;100857.88;;;7.67;100.00
48204;BME280;33994;50.998;5.864;2023-11-21T06:13:45;100855.28;;;7.64;100.00
48204;BME280;33994;50.998;5.864;2023-11-21T06:16:48;100859.63;;;7.64;100.00
48204;BME280;33994;50.998;5.864;2023-11-21T06:19:51;100865.69;;;7.61;100.00
48204;BME280;33994;50.998;5.864;2023-11-21T06:22:54;100870.91;;;7.60;100.00
48204;BME280;33994;50.998;5.864;2023-11-21T06:25:57;100875.25;;;7.59;100.00
48204;BME280;33994;50.998;5.864;2023-11-21T06:29:02;100872.66;;;7.59;100.00
48204;BME280;33994;50.998;5.864;2023-11-21T06:32:06;100882.19;;;7.60;100.00
48204;BME280;33994;50.998;5.864;2023-11-21T06:35:09;100882.16;;;7.62;100.00
48204;BME280;33994;50.998;5.864;2023-11-21T06:38:12;100880.41;;;7.62;100.00
48204;BME280;33994;50.998;5.864;2023-11-21T06:41:15;100882.16;;;7.62;100.00
48204;BME280;33994;50.998;5.864;2023-11-21T06:44:20;100894.31;;;7.61;100.00
48204;BME280;33994;50.998;5.864;2023-11-21T06:47:23;100899.53;;;7.61;100.00
48204;BME280;33994;50.998;5.864;2023-11-21T06:50:26;100905.59;;;7.60;100.00
48204;BME280;33994;50.998;5.864;2023-11-21T06:53:29;100913.41;;;7.62;100.00
48204;BME280;33994;50.998;5.864;2023-11-21T06:56:32;100911.69;;;7.64;100.00
48204;BME280;33994;50.998;5.864;2023-11-21T06:59:37;100916.88;;;7.64;100.00
48204;BME280;33994;50.998;5.864;2023-11-21T07:02:40;100916.88;;;7.64;100.00
48204;BME280;33994;50.998;5.864;2023-11-21T07:05:43;100924.69;;;7.64;100.00
48204;BME280;33994;50.998;5.864;2023-11-21T07:08:46;100919.47;;;7.65;100.00
48204;BME280;33994;50.998;5.864;2023-11-21T07:11:50;100929.91;;;7.67;100.00
48204;BME280;33994;50.998;5.864;2023-11-21T07:14:54;100937.69;;;7.70;100.00
48204;BME280;33994;50.998;5.864;2023-11-21T07:17:57;100937.69;;;7.70;100.00
48204;BME280;33994;50.998;5.864;2023-11-21T07:21:00;100944.66;;;7.71;100.00
48204;BME280;33994;50.998;5.864;2023-11-21T07:24:05;100950.69;;;7.70;100.00
48204;BME280;33994;50.998;5.864;2023-11-21T07:27:09;100954.19;;;7.70;100.00
48204;BME280;33994;50.998;5.864;2023-11-21T07:30:14;100955.06;;;7.71;100.00
48204;BME280;33994;50.998;5.864;2023-11-21T07:33:17;100963.72;;;7.73;100.00
48204;BME280;33994;50.998;5.864;2023-11-21T07:36:20;100966.34;;;7.74;100.00
48204;BME280;33994;50.998;5.864;2023-11-21T07:39:23;100965.44;;;7.77;100.00
48204;BME280;33994;50.998;5.864;2023-11-21T07:42:26;100964.56;;;7.81;100.00
48204;BME280;33994;50.998;5.864;2023-11-21T07:45:31;100968.94;;;7.82;100.00
48204;BME280;33994;50.998;5.864;2023-11-21T07:48:34;100970.66;;;7.83;100.00
48204;BME280;33994;50.998;5.864;2023-11-21T07:51:38;100983.66;;;7.85;100.00
48204;BME280;33994;50.998;5.864;2023-11-21T07:54:41;100981.06;;;7.86;100.00
48204;BME280;33994;50.998;5.864;2023-11-21T07:57:44;100989.75;;;7.88;100.00
48204;BME280;33994;50.998;5.864;2023-11-21T08:00:49;100998.44;;;7.90;100.00
48204;BME280;33994;50.998;5.864;2023-11-21T08:03:52;101010.56;;;7.91;100.00
48204;BME280;33994;50.998;5.864;2023-11-21T08:06:55;101012.28;;;7.92;100.00
48204;BME280;33994;50.998;5.864;2023-11-21T08:09:58;101019.28;;;7.93;100.00
48204;BME280;33994;50.998;5.864;2023-11-21T08:13:02;101024.47;;;7.93;100.00
48204;BME280;33994;50.998;5.864;2023-11-21T08:16:07;101020.13;;;7.97;100.00
48204;BME280;33994;50.998;5.864;2023-11-21T08:19:10;101011.44;;;7.98;100.00
48204;BME280;33994;50.998;5.864;2023-11-21T08:22:14;101020.97;;;7.99;100.00
48204;BME280;33994;50.998;5.864;2023-11-21T08:25:17;101017.50;;;7.98;100.00
48204;BME280;33994;50.998;5.864;2023-11-21T08:28:20;101021.84;;;7.99;100.00
48204;BME280;33994;50.998;5.864;2023-11-21T08:31:25;101036.59;;;7.99;100.00
48204;BME280;33994;50.998;5.864;2023-11-21T08:34:28;101040.97;;;8.01;100.00
48204;BME280;33994;50.998;5.864;2023-11-21T08:37:31;101039.22;;;8.02;100.00
48204;BME280;33994;50.998;5.864;2023-11-21T08:40:34;101047.03;;;8.05;100.00
48204;BME280;33994;50.998;5.864;2023-11-21T08:43:38;101047.88;;;8.07;100.00
48204;BME280;33994;50.998;5.864;2023-11-21T08:46:42;101046.16;;;8.09;100.00
48204;BME280;33994;50.998;5.864;2023-11-21T08:49:45;101047.03;;;8.10;100.00
48204;BME280;33994;50.998;5.864;2023-11-21T08:52:48;101061.78;;;8.06;100.00
48204;BME280;33994;50.998;5.864;2023-11-21T08:55:51;101059.19;;;8.09;100.00
48204;BME280;33994;50.998;5.864;2023-11-21T08:58:55;101067.00;;;8.12;100.00
48204;BME280;33994;50.998;5.864;2023-11-21T09:01:59;101071.31;;;8.15;100.00
48204;BME280;33994;50.998;5.864;2023-11-21T09:05:03;101071.31;;;8.18;100.00
48204;BME280;33994;50.998;5.864;2023-11-21T09:08:06;101074.78;;;8.18;100.00
48204;BME280;33994;50.998;5.864;2023-11-21T09:11:09;101080.88;;;8.17;100.00
48204;BME280;33994;50.998;5.864;2023-11-21T09:14:13;101080.03;;;8.17;100.00
48204;BME280;33994;50.998;5.864;2023-11-21T09:17:17;101084.34;;;8.19;100.00
48204;BME280;33994;50.998;5.864;2023-11-21T09:20:20;101088.72;;;8.23;100.00
48204;BME280;33994;50.998;5.864;2023-11-21T09:23:24;101091.31;;;8.23;100.00
48204;BME280;33994;50.998;5.864;2023-11-21T09:26:26;101091.28;;;8.26;100.00
48204;BME280;33994;50.998;5.864;2023-11-21T09:29:29;101086.94;;;8.27;100.00
48204;BME280;33994;50.998;5.864;2023-11-21T09:32:34;101093.88;;;8.30;100.00
48204;BME280;33994;50.998;5.864;2023-11-21T09:35:37;101100.84;;;8.32;100.00
48204;BME280;33994;50.998;5.864;2023-11-21T09:38:41;101108.66;;;8.34;100.00
48204;BME280;33994;50.998;5.864;2023-11-21T09:41:46;101104.31;;;8.34;100.00
48204;BME280;33994;50.998;5.864;2023-11-21T09:44:56;101098.25;;;8.35;100.00
48204;BME280;33994;50.998;5.864;2023-11-21T09:48:04;101105.19;;;8.39;100.00
48204;BME280;33994;50.998;5.864;2023-11-21T09:51:08;101102.56;;;8.39;100.00
48204;BME280;33994;50.998;5.864;2023-11-21T09:54:13;101097.38;;;8.39;100.00
48204;BME280;33994;50.998;5.864;2023-11-21T09:57:19;101110.38;;;8.41;100.00
48204;BME280;33994;50.998;5.864;2023-11-21T10:00:22;101116.47;;;8.47;100.00
48204;BME280;33994;50.998;5.864;2023-11-21T10:03:26;101119.06;;;8.47;100.00
48204;BME280;33994;50.998;5.864;2023-11-21T10:06:30;101118.19;;;8.45;100.00
48204;BME280;33994;50.998;5.864;2023-11-21T10:09:34;101122.53;;;8.49;100.00
48204;BME280;33994;50.998;5.864;2023-11-21T10:12:38;101126.84;;;8.53;100.00
48204;BME280;33994;50.998;5.864;2023-11-21T10:15:43;101126.88;;;8.55;100.00
48204;BME280;33994;50.998;5.864;2023-11-21T10:18:50;101135.56;;;8.59;100.00
48204;BME280;33994;50.998;5.864;2023-11-21T10:21:55;101139.00;;;8.58;100.00
48204;BME280;33994;50.998;5.864;2023-11-21T10:24:58;101141.63;;;8.59;100.00
48204;BME280;33994;50.998;5.864;2023-11-21T10:28:02;101145.97;;;8.57;100.00
48204;BME280;33994;50.998;5.864;2023-11-21T10:31:06;101146.84;;;8.59;100.00
48204;BME280;33994;50.998;5.864;2023-11-21T10:34:16;101151.19;;;8.59;100.00
48204;BME280;33994;50.998;5.864;2023-11-21T10:37:19;101143.38;;;8.59;100.00
48204;BME280;33994;50.998;5.864;2023-11-21T10:40:22;101142.50;;;8.63;100.00
48204;BME280;33994;50.998;5.864;2023-11-21T10:43:25;101143.38;;;8.62;100.00
48204;BME280;33994;50.998;5.864;2023-11-21T10:46:28;101152.03;;;8.65;100.00
48204;BME280;33994;50.998;5.864;2023-11-21T10:49:33;101151.19;;;8.65;100.00
48204;BME280;33994;50.998;5.864;2023-11-21T10:52:36;101150.31;;;8.64;100.00
48204;BME280;33994;50.998;5.864;2023-11-21T10:55:40;101149.44;;;8.64;100.00
48204;BME280;33994;50.998;5.864;2023-11-21T10:58:43;101145.97;;;8.63;100.00
48204;BME280;33994;50.998;5.864;2023-11-21T11:01:47;101152.91;;;8.64;100.00
48204;BME280;33994;50.998;5.864;2023-11-21T11:04:52;101150.31;;;8.66;100.00
48204;BME280;33994;50.998;5.864;2023-11-21T11:07:58;101159.00;;;8.66;100.00
48204;BME280;33994;50.998;5.864;2023-11-21T11:11:02;101157.28;;;8.67;100.00
48204;BME280;33994;50.998;5.864;2023-11-21T11:14:05;101163.34;;;8.69;100.00
48204;BME280;33994;50.998;5.864;2023-11-21T11:17:09;101159.88;;;8.71;100.00
48204;BME280;33994;50.998;5.864;2023-11-21T11:20:16;101158.13;;;8.75;100.00
48204;BME280;33994;50.998;5.864;2023-11-21T11:23:33;101156.41;;;8.74;100.00
48204;BME280;33994;50.998;5.864;2023-11-21T11:26:45;101157.25;;;8.74;100.00
48204;BME280;33994;50.998;5.864;2023-11-21T11:33:23;101162.47;;;8.79;100.00
48204;BME280;33994;50.998;5.864;2023-11-21T11:36:35;101160.72;;;8.76;100.00
48204;BME280;33994;50.998;5.864;2023-11-21T11:39:41;101157.25;;;8.79;100.00
48204;BME280;33994;50.998;5.864;2023-11-21T11:42:56;101162.47;;;8.77;100.00
48204;BME280;33994;50.998;5.864;2023-11-21T11:45:59;101165.06;;;8.79;100.00
48204;BME280;33994;50.998;5.864;2023-11-21T11:49:05;101168.56;;;8.81;100.00
48204;BME280;33994;50.998;5.864;2023-11-21T11:52:34;101166.78;;;8.80;100.00
48204;BME280;33994;50.998;5.864;2023-11-21T11:55:37;101172.91;;;8.81;100.00
48204;BME280;33994;50.998;5.864;2023-11-21T11:58:41;101175.50;;;8.82;100.00
48204;BME280;33994;50.998;5.864;2023-11-21T12:01:45;101180.69;;;8.84;100.00
48204;BME280;33994;50.998;5.864;2023-11-21T12:04:49;101175.50;;;8.82;100.00
48204;BME280;33994;50.998;5.864;2023-11-21T12:07:55;101174.63;;;8.83;100.00
48204;BME280;33994;50.998;5.864;2023-11-21T12:10:58;101184.19;;;8.86;100.00
48204;BME280;33994;50.998;5.864;2023-11-21T12:14:03;101185.94;;;8.85;100.00
48204;BME280;33994;50.998;5.864;2023-11-21T12:17:06;101184.16;;;8.87;100.00
48204;BME280;33994;50.998;5.864;2023-11-21T12:20:11;101193.75;;;8.90;100.00
48204;BME280;33994;50.998;5.864;2023-11-21T12:23:16;101196.31;;;8.91;100.00
48204;BME280;33994;50.998;5.864;2023-11-21T12:26:19;101207.63;;;8.92;100.00
48204;BME280;33994;50.998;5.864;2023-11-21T12:29:22;101212.84;;;8.95;100.00
48204;BME280;33994;50.998;5.864;2023-11-21T12:32:25;101207.66;;;8.96;100.00
48204;BME280;33994;50.998;5.864;2023-11-21T12:35:30;101214.59;;;8.97;100.00
48204;BME280;33994;50.998;5.864;2023-11-21T12:38:35;101213.72;;;8.95;100.00
48204;BME280;33994;50.998;5.864;2023-11-21T12:41:38;101211.97;;;8.97;100.00
48204;BME280;33994;50.998;5.864;2023-11-21T12:44:41;101217.22;;;8.96;100.00
48204;BME280;33994;50.998;5.864;2023-11-21T12:47:44;101219.81;;;8.97;100.00
48204;BME280;33994;50.998;5.864;2023-11-21T12:50:48;101215.44;;;8.99;100.00
48204;BME280;33994;50.998;5.864;2023-11-21T12:53:52;101223.28;;;9.04;100.00
48204;BME280;33994;50.998;5.864;2023-11-21T12:56:59;101230.22;;;9.02;100.00
48204;BME280;33994;50.998;5.864;2023-11-21T13:00:03;101225.88;;;9.01;100.00
48204;BME280;33994;50.998;5.864;2023-11-21T13:03:08;101232.81;;;9.07;100.00
48204;BME280;33994;50.998;5.864;2023-11-21T13:06:11;101231.09;;;9.09;100.00
48204;BME280;33994;50.998;5.864;2023-11-21T13:09:17;101234.53;;;9.11;100.00
48204;BME280;33994;50.998;5.864;2023-11-21T13:12:23;101243.28;;;9.11;100.00
48204;BME280;33994;50.998;5.864;2023-11-21T13:15:27;101244.97;;;9.11;100.00
48204;BME280;33994;50.998;5.864;2023-11-21T13:18:31;101253.72;;;9.11;100.00
48204;BME280;33994;50.998;5.864;2023-11-21T13:21:34;101248.47;;;9.13;100.00
48204;BME280;33994;50.998;5.864;2023-11-21T13:24:38;101257.19;;;9.12;100.00
48204;BME280;33994;50.998;5.864;2023-11-21T13:27:42;101251.97;;;9.12;100.00
48204;BME280;33994;50.998;5.864;2023-11-21T13:30:45;101252.81;;;9.11;100.00
48204;BME280;33994;50.998;5.864;2023-11-21T13:33:49;101255.41;;;9.11;100.00
48204;BME280;33994;50.998;5.864;2023-11-21T13:36:52;101261.53;;;9.11;100.00
48204;BME280;33994;50.998;5.864;2023-11-21T13:39:56;101264.13;;;9.10;100.00
48204;BME280;33994;50.998;5.864;2023-11-21T13:43:00;101262.38;;;9.07;100.00
48204;BME280;33994;50.998;5.864;2023-11-21T13:46:03;101260.66;;;9.05;100.00
48204;BME280;33994;50.998;5.864;2023-11-21T13:49:06;101264.16;;;9.00;100.00
48204;BME280;33994;50.998;5.864;2023-11-21T13:52:09;101265.00;;;9.02;100.00
48204;BME280;33994;50.998;5.864;2023-11-21T13:55:13;101271.09;;;9.05;100.00
48204;BME280;33994;50.998;5.864;2023-11-21T13:58:17;101276.34;;;9.08;100.00
48204;BME280;33994;50.998;5.864;2023-11-21T14:01:21;101277.19;;;9.11;100.00
48204;BME280;33994;50.998;5.864;2023-11-21T14:04:25;101273.69;;;9.09;100.00
48204;BME280;33994;50.998;5.864;2023-11-21T14:07:28;101276.34;;;9.08;100.00
48204;BME280;33994;50.998;5.864;2023-11-21T14:10:33;101280.66;;;9.06;100.00
48204;BME280;33994;50.998;5.864;2023-11-21T14:13:36;101286.75;;;9.05;100.00
48204;BME280;33994;50.998;5.864;2023-11-21T14:16:39;101282.41;;;8.99;100.00
48204;BME280;33994;50.998;5.864;2023-11-21T14:19:42;101285.88;;;8.99;100.00
48204;BME280;33994;50.998;5.864;2023-11-21T14:22:45;101288.50;;;8.99;100.00
48204;BME280;33994;50.998;5.864;2023-11-21T14:25:50;101295.47;;;8.97;100.00
48204;BME280;33994;50.998;5.864;2023-11-21T14:28:53;101308.50;;;8.97;100.00
48204;BME280;33994;50.998;5.864;2023-11-21T14:31:56;101311.97;;;8.99;100.00
48204;BME280;33994;50.998;5.864;2023-11-21T14:34:59;101307.63;;;8.98;100.00
48204;BME280;33994;50.998;5.864;2023-11-21T14:38:02;101309.38;;;8.96;100.00
48204;BME280;33994;50.998;5.864;2023-11-21T14:41:07;101324.16;;;8.94;100.00
48204;BME280;33994;50.998;5.864;2023-11-21T14:44:10;101328.50;;;8.89;100.00
48204;BME280;33994;50.998;5.864;2023-11-21T14:47:13;101331.13;;;8.86;100.00
48204;BME280;33994;50.998;5.864;2023-11-21T14:50:16;101335.47;;;8.87;100.00
48204;BME280;33994;50.998;5.864;2023-11-21T14:53:19;101346.78;;;8.86;100.00
48204;BME280;33994;50.998;5.864;2023-11-21T14:56:24;101345.88;;;8.84;100.00
48204;BME280;33994;50.998;5.864;2023-11-21T14:59:27;101362.41;;;8.80;100.00
48204;BME280;33994;50.998;5.864;2023-11-21T15:02:30;101359.81;;;8.77;100.00
48204;BME280;33994;50.998;5.864;2023-11-21T15:05:33;101366.75;;;8.80;100.00
48204;BME280;33994;50.998;5.864;2023-11-21T15:08:35;101370.25;;;8.79;100.00
48204;BME280;33994;50.998;5.864;2023-11-21T15:11:40;101377.19;;;8.75;100.00
48204;BME280;33994;50.998;5.864;2023-11-21T15:14:44;101384.13;;;8.76;100.00
48204;BME280;33994;50.998;5.864;2023-11-21T15:17:47;101380.66;;;8.74;100.00
48204;BME280;33994;50.998;5.864;2023-11-21T15:20:50;101376.31;;;8.74;100.00
48204;BME280;33994;50.998;5.864;2023-11-21T15:23:53;101391.09;;;8.74;100.00
48204;BME280;33994;50.998;5.864;2023-11-21T15:26:58;101396.34;;;8.77;100.00
48204;BME280;33994;50.998;5.864;2023-11-21T15:30:01;101396.31;;;8.80;100.00
48204;BME280;33994;50.998;5.864;2023-11-21T15:33:05;101399.81;;;8.82;100.00
48204;BME280;33994;50.998;5.864;2023-11-21T15:36:08;101403.25;;;8.84;100.00
48204;BME280;33994;50.998;5.864;2023-11-21T15:39:11;101409.38;;;8.86;100.00
48204;BME280;33994;50.998;5.864;2023-11-21T15:42:16;101412.84;;;8.84;100.00
48204;BME280;33994;50.998;5.864;2023-11-21T15:45:19;101412.84;;;8.82;100.00
48204;BME280;33994;50.998;5.864;2023-11-21T15:48:22;101418.94;;;8.81;100.00
48204;BME280;33994;50.998;5.864;2023-11-21T15:51:26;101416.31;;;8.78;100.00
48204;BME280;33994;50.998;5.864;2023-11-21T15:54:29;101432.81;;;8.72;100.00
48204;BME280;33994;50.998;5.864;2023-11-21T15:57:34;101438.03;;;8.68;100.00
48204;BME280;33994;50.998;5.864;2023-11-21T16:00:37;101440.59;;;8.65;100.00
48204;BME280;33994;50.998;5.864;2023-11-21T16:03:40;101448.44;;;8.68;100.00